หน้าหลัก
METAR-TAF:

METAR-TAF

ท่าอากาศยาน :

Borlänge, สวีเดน

ละติจูด: 60-26N, ลองจิจูด: 015-31E, ความสูง: 145 ม.

การสังเกตสภาพอากาศปัจจุบัน

รายงานได้ทำขึ้นเมื่อ 25 นาทีที่แล้ว ณ เวลา 01:20 UTC
ลม 2 นอตจากตะวันตก/ตะวันตกเฉียงเหนือ
อุณหภูมิ 12°C
ความชื้น 100%
ความกดอากาศ 1015 hPa
ทัศนวิสัย 10 กม. หรือมากกว่า

METAR: ESSD 130120Z AUTO 29002KT 9999 NCD 12/12 Q1015

เวลา: 03:45 (01:45 UTC)

การพยากรณ์

รายงานได้ทำขึ้นเมื่อ 14 ชั่วโมงและ 15 นาทีที่แล้ว ณ เวลา 11:30 UTC
การพยากรณ์มีผลตั้งแต่วันที่ 12 ณ เวลา 12 UTC จนถึงวันที่ 12 ณ เวลา 14 UTC
ลม 3 นอตจากทิศทางซึ่งแปรผันได้
ทัศนวิสัย 10 กม. หรือมากกว่า
มีเมฆกระจายเป็นบางส่วนที่ความสูง 4000 ฟุต
ความน่าจะเป็น 40%
ตั้งแต่วันที่ 12 ณ เวลา 12 UTC จนถึงวันที่ 12 ณ เวลา 14 UTC
มีเมฆกระจายเป็นบางส่วนที่ความสูง 4000 ฟุต, คิวมูลัสที่ก่อตัวขึ้นสูง.

TAF: ESSD 121130Z 1212/1214 VRB03KT 9999 SCT040 PROB40 1212/1214 SCT040TCU

สังเกตการณ์สภาพอากาศและพยากรณ์อากาศของสนามบินมากกว่า 4000 แห่ง (รายงาน METAR และ TAF).

สถานีที่ดูได้จะแสดงไว้ด้วยจุดสีเหลืองและสีแดงบนแผนที่.

เลื่อนเมาส์ไปเหนือจุดเพื่อดูชื่อสถานี.

แล้วคลิกเพื่อดูสังเกตการณ์และการพยากรณ์สภาพอากาศ.

ในการเปลี่ยนแผนที่: คลิกที่ปุ่มสีเขียวที่มีกากบาทสีดำเพื่อซูมเข้า; ที่ปุ่มสีเขียวที่มีขีดเพื่อซูมออก; หรือที่ลูกศรสีเขียวเพื่อไปยังแผนที่ที่อยู่ติดกัน.


METAR-TAF: